Holland, Vermont
Current Conditions -  °F | °C
As of 1:15 AM on Thursday 29 Jan 2015 (Local Time) from KEFK Reporting Station
Clear Clear  
Wind Chill: -21°   Ceiling: Unl
Heat Index: -8°   Visibility: 10mi
Dew Point: -11°   Wind: 6mph
Humidity: 84%   Direction: 210°SSW
Pressure: 30.27"   Gusts: NA
Location:  44.9734°N, 72.0075°W
Report Text: KEFK 290615Z AUTO 21005KT 10SM CLR M22/M24 A3027 RMK AO2 T12201240
Loading
Personal Weather Stations






























Interactive Weather Map New forecast layout! Learn more

10-Day Weather Forecast

Advertisements
Track Severe Weather on mobile